Aviation Digital Data Service (ADDS)

Output produced by TAFs form (0211 UTC 24 November 2017)
found at http://www.aviationweather.gov/adds/tafs/
 
EGPF 240150Z AUTO VRB02KT 9999 //////TCU M00/M01 Q1003
TAF EGPF 232303Z 2400/2424 25005KT 9999 SCT030 
     TEMPO 2400/2418 6000 SHRA BKN009 
     PROB30 2402/2406 3000 BR 
     PROB40 
     TEMPO 2407/2413 2000 SHRASN BKN003 
     PROB40 
     TEMPO 2413/2418 1000 SHSN BKN003